Time;durP1;ratioP1;P1;durP2;ratioP2;P2;SDS_P1;SDS_P2;PMS_P1;PMS_P2;Temp;Humidity;BMP_temperature;BMP_pressure;BME280_temperature;BME280_humidity;BME280_pressure;Samples;Min_cycle;Max_cycle;Signal;HPM_P1;HPM_P2
2022/07/01 00:01:25;;;;;;;12.80;4.40;;;;;;;20.68;51.83;99378.30;25109;1315;3026388;-62
2022/07/01 00:03:54;;;;;;;8.00;3.60;;;;;;;20.67;51.91;99376.63;25038;1313;3026832;-60
2022/07/01 00:06:23;;;;;;;10.90;4.10;;;;;;;20.69;51.55;99379.11;25118;1313;3054403;-63
2022/07/01 00:08:52;;;;;;;8.80;4.20;;;;;;;20.65;51.71;99377.81;25055;1313;3026542;-62
2022/07/01 00:11:21;;;;;;;11.00;4.20;;;;;;;20.62;51.87;99379.07;25073;1313;3048227;-62
2022/07/01 00:13:50;;;;;;;17.60;3.80;;;;;;;20.58;51.93;99379.82;25044;1313;3026578;-61
2022/07/01 00:16:20;;;;;;;12.00;4.60;;;;;;;20.54;52.10;99378.23;25035;1313;3071218;-62
2022/07/01 00:18:49;;;;;;;8.90;4.60;;;;;;;20.52;52.24;99376.55;25098;1312;3026298;-62
2022/07/01 00:21:18;;;;;;;13.80;5.80;;;;;;;20.44;52.86;99378.25;25021;1313;3051531;-63
2022/07/01 00:23:47;;;;;;;12.70;5.90;;;;;;;20.31;53.63;99375.64;25076;1315;3026884;-61
2022/07/01 00:26:16;;;;;;;13.60;6.70;;;;;;;20.13;54.22;99378.19;25013;1315;3054922;-62
2022/07/01 00:28:45;;;;;;;14.30;6.30;;;;;;;19.94;54.86;99375.30;24728;1317;3026562;-62
2022/07/01 00:31:14;;;;;;;11.40;5.70;;;;;;;19.84;54.94;99368.94;25022;1315;3053429;-63
2022/07/01 00:33:43;;;;;;;12.30;5.20;;;;;;;19.77;55.06;99371.30;25093;1313;3026534;-61
2022/07/01 00:36:12;;;;;;;12.70;5.70;;;;;;;19.71;54.91;99369.05;25075;1313;3055509;-62
2022/07/01 00:38:41;;;;;;;16.20;5.30;;;;;;;19.73;54.76;99366.70;25089;1313;3026522;-62
2022/07/01 00:41:10;;;;;;;12.70;5.40;;;;;;;19.73;54.26;99364.81;25057;1313;3054834;-61
2022/07/01 00:43:39;;;;;;;10.20;4.90;;;;;;;19.77;54.13;99362.27;25075;1313;3026592;-61
2022/07/01 00:46:09;;;;;;;12.20;4.60;;;;;;;19.80;53.94;99356.48;25063;1318;3052697;-62
2022/07/01 00:48:37;;;;;;;12.20;4.40;;;;;;;19.84;53.73;99355.52;25047;1315;3026676;-61
2022/07/01 00:51:09;;;;;;;16.00;4.50;;;;;;;19.91;53.59;99358.77;25079;1313;3050632;-60
2022/07/01 00:53:38;;;;;;;10.10;4.00;;;;;;;19.93;53.62;99359.08;25033;1313;3026975;-61
2022/07/01 00:56:07;;;;;;;10.60;4.30;;;;;;;19.92;53.63;99355.58;25065;1316;3067144;-61
2022/07/01 00:58:37;;;;;;;11.30;4.00;;;;;;;19.96;53.45;99356.80;25028;1316;3026570;-66
2022/07/01 01:01:06;;;;;;;12.40;3.90;;;;;;;19.99;53.54;99354.45;25041;1318;3051007;-61
2022/07/01 01:03:35;;;;;;;11.50;3.90;;;;;;;19.98;53.70;99357.73;25064;1313;3026866;-63
2022/07/01 01:06:04;;;;;;;8.50;3.70;;;;;;;20.00;53.60;99358.02;25040;1313;3026258;-62
2022/07/01 01:08:33;;;;;;;10.50;4.20;;;;;;;20.00;53.98;99360.16;25109;1317;3050363;-61
2022/07/01 01:11:04;;;;;;;10.60;3.90;;;;;;;19.98;54.28;99358.21;25043;1318;3028149;-61
2022/07/01 01:13:33;;;;;;;12.00;4.10;;;;;;;20.02;54.03;99354.14;25056;1313;3026729;-60
2022/07/01 01:16:02;;;;;;;10.20;4.40;;;;;;;20.04;53.82;99352.68;25021;1315;3026488;-63
2022/07/01 01:18:33;;;;;;;7.30;3.70;;;;;;;20.03;54.00;99346.52;25035;1313;3070858;-61
2022/07/01 01:21:02;;;;;;;13.30;4.10;;;;;;;20.02;54.29;99348.41;25202;1313;3026476;-60
2022/07/01 01:23:32;;;;;;;6.90;3.90;;;;;;;20.01;54.51;99345.50;25064;1315;3026992;-61
2022/07/01 01:26:13;;;;;;;7.30;3.90;;;;;;;20.01;54.36;99345.86;25042;1316;3026595;-61
2022/07/01 01:28:43;;;;;;;7.90;3.70;;;;;;;20.00;55.07;99347.22;25069;1316;3058282;-62
2022/07/01 01:31:12;;;;;;;8.20;3.90;;;;;;;19.98;55.27;99342.21;25020;1315;3030004;-62
2022/07/01 01:33:41;;;;;;;6.40;3.70;;;;;;;19.99;55.53;99342.39;25073;1313;3053065;-64
2022/07/01 01:36:10;;;;;;;14.10;4.00;;;;;;;20.00;55.55;99337.09;25065;1315;3026445;-61
2022/07/01 01:38:40;;;;;;;11.10;4.00;;;;;;;19.99;55.51;99338.89;25024;1313;3053899;-62
2022/07/01 01:41:09;;;;;;;11.30;3.50;;;;;;;20.01;55.48;99339.77;25071;1313;3027778;-61
2022/07/01 01:43:38;;;;;;;7.90;3.50;;;;;;;20.04;55.70;99340.02;25040;1313;3051133;-61
2022/07/01 01:46:07;;;;;;;9.10;3.50;;;;;;;20.10;55.41;99342.45;25118;1313;3026458;-62
2022/07/01 01:48:36;;;;;;;4.50;3.40;;;;;;;20.10;56.00;99345.30;25012;1313;3070863;-61
2022/07/01 01:51:05;;;;;;;10.30;3.40;;;;;;;20.13;55.82;99346.58;25064;1313;3026628;-60
2022/07/01 01:54:07;;;;;;;7.50;3.90;;;;;;;20.21;56.12;99345.73;31468;1319;3029000;-61
2022/07/01 01:56:37;;;;;;;8.10;4.10;;;;;;;20.43;55.09;99344.52;24958;1322;3026375;-62
2022/07/01 01:59:06;;;;;;;7.40;3.80;;;;;;;20.65;54.90;99343.38;24933;1322;3026063;-62
2022/07/01 02:01:35;;;;;;;5.80;3.80;;;;;;;20.63;54.82;99348.52;25001;1322;3048746;-62
2022/07/01 02:04:04;;;;;;;5.40;3.80;;;;;;;20.62;54.92;99350.45;24893;1322;3028544;-61
2022/07/01 02:06:34;;;;;;;6.10;3.10;;;;;;;20.58;54.98;99350.80;24714;1320;3300140;-61
2022/07/01 02:09:03;;;;;;;11.30;3.40;;;;;;;20.58;55.08;99353.80;25077;1315;3026327;-62
2022/07/01 02:11:33;;;;;;;7.70;3.70;;;;;;;20.60;55.06;99356.31;25086;1316;3049003;-60
2022/07/01 02:14:02;;;;;;;7.80;3.20;;;;;;;20.59;55.36;99359.25;25022;1315;3026494;-62
2022/07/01 02:16:31;;;;;;;5.00;3.10;;;;;;;20.59;55.50;99359.02;25126;1315;3055240;-62
2022/07/01 02:19:01;;;;;;;6.80;3.40;;;;;;;20.58;55.65;99355.84;25095;1315;3026818;-62
2022/07/01 02:21:30;;;;;;;11.30;3.70;;;;;;;20.61;55.61;99360.98;25021;1316;3026423;-62
2022/07/01 02:23:59;;;;;;;8.10;3.60;;;;;;;20.64;55.44;99360.13;25094;1315;3055239;-61
2022/07/01 02:26:28;;;;;;;5.80;3.30;;;;;;;20.66;55.48;99364.27;25021;1316;3026879;-63
2022/07/01 02:28:56;;;;;;;9.00;3.60;;;;;;;20.68;55.38;99360.83;25080;1316;3049360;-61
2022/07/01 02:31:25;;;;;;;6.10;3.40;;;;;;;20.72;55.26;99361.69;25075;1316;3026093;-63
2022/07/01 02:33:54;;;;;;;12.20;6.30;;;;;;;20.74;55.33;99365.40;25074;1316;3058794;-61
2022/07/01 02:36:23;;;;;;;11.50;5.40;;;;;;;20.73;55.36;99370.27;25062;1316;3026309;-62
2022/07/01 02:38:52;;;;;;;8.90;3.60;;;;;;;20.74;55.20;99372.02;25053;1316;3054207;-62
2022/07/01 02:41:21;;;;;;;4.40;3.00;;;;;;;20.74;55.22;99374.81;25073;1316;3026632;-63
2022/07/01 02:43:50;;;;;;;14.10;3.10;;;;;;;20.71;55.28;99373.70;25029;1316;3052389;-64
2022/07/01 02:46:19;;;;;;;9.40;3.50;;;;;;;20.71;55.23;99374.27;25109;1316;3026768;-66
2022/07/01 02:48:49;;;;;;;4.00;2.70;;;;;;;20.72;55.39;99374.85;25064;1316;3048238;-63
2022/07/01 02:51:18;;;;;;;10.00;3.50;;;;;;;20.76;55.31;99376.20;25042;1316;3029351;-61
2022/07/01 02:53:46;;;;;;;7.20;3.30;;;;;;;20.77;55.35;99373.56;25107;1316;3068036;-61
2022/07/01 02:56:16;;;;;;;4.70;3.20;;;;;;;20.75;55.47;99375.05;25073;1315;3026396;-62
2022/07/01 02:58:45;;;;;;;8.30;3.50;;;;;;;20.74;55.65;99376.45;25077;1316;3051555;-62
2022/07/01 03:01:14;;;;;;;7.60;4.10;;;;;;;20.69;55.71;99381.38;25041;1316;3026493;-62
2022/07/01 03:03:43;;;;;;;7.70;3.90;;;;;;;20.65;55.91;99383.92;25108;1317;3055176;-61
2022/07/01 03:06:12;;;;;;;8.70;4.70;;;;;;;20.58;56.30;99379.81;25073;1316;3026126;-63
2022/07/01 03:08:41;;;;;;;10.40;4.70;;;;;;;20.51;56.40;99381.95;25082;1316;3051570;-61
2022/07/01 03:11:10;;;;;;;11.30;6.20;;;;;;;20.44;56.74;99384.84;25055;1314;3026476;-60
2022/07/01 03:13:39;;;;;;;15.90;7.10;;;;;;;20.33;57.26;99384.36;25090;1316;3057936;-60
2022/07/01 03:16:08;;;;;;;16.70;8.60;;;;;;;20.31;57.64;99385.32;24994;1316;3026182;-62
2022/07/01 03:18:37;;;;;;;22.10;9.50;;;;;;;20.31;57.56;99388.63;25100;1315;3051994;-62
2022/07/01 03:21:06;;;;;;;22.80;9.80;;;;;;;20.17;58.14;99385.41;25021;1315;3026173;-61
2022/07/01 03:23:35;;;;;;;20.10;9.50;;;;;;;20.07;58.57;99386.61;25068;1316;3055167;-62
2022/07/01 03:26:04;;;;;;;18.40;9.80;;;;;;;19.97;59.19;99389.80;25069;1316;3026448;-64
2022/07/01 03:28:34;;;;;;;22.50;9.90;;;;;;;19.88;59.75;99390.16;25016;1316;3051003;-62
2022/07/01 03:31:03;;;;;;;17.10;9.40;;;;;;;19.84;60.08;99388.95;25094;1315;3026311;-62
2022/07/01 03:33:32;;;;;;;13.60;8.20;;;;;;;19.81;60.37;99392.21;25020;1315;3026652;-60
2022/07/01 03:36:01;;;;;;;17.70;8.50;;;;;;;19.80;60.53;99393.27;25083;1316;3050359;-62
2022/07/01 03:38:31;;;;;;;20.30;10.10;;;;;;;19.83;60.93;99388.02;25089;1316;3026233;-63
2022/07/01 03:41:00;;;;;;;16.40;8.90;;;;;;;19.76;61.31;99388.31;25030;1316;3026679;-63
2022/07/01 03:43:29;;;;;;;16.70;9.40;;;;;;;19.67;61.86;99396.32;25071;1316;3051188;-64
2022/07/01 03:45:58;;;;;;;21.70;8.90;;;;;;;19.69;62.08;99397.05;25057;1316;3026735;-63
2022/07/01 03:48:27;;;;;;;17.90;7.30;;;;;;;19.71;62.10;99389.70;25063;1315;3068483;-63
2022/07/01 03:50:56;;;;;;;19.30;8.00;;;;;;;19.72;62.10;99386.58;25053;1316;3026709;-66
2022/07/01 03:56:13;;;;;;;19.20;9.20;;;;;;;19.65;62.76;99384.07;25064;1315;3071847;-62
2022/07/01 03:58:42;;;;;;;18.20;7.90;;;;;;;19.65;62.72;99386.39;25000;1315;3026498;-61
2022/07/01 04:01:11;;;;;;;23.00;10.00;;;;;;;19.66;62.81;99388.60;25072;1315;3051038;-62
2022/07/01 04:03:40;;;;;;;13.40;8.30;;;;;;;19.68;62.79;99383.58;25026;1316;3026664;-62
2022/07/01 04:06:11;;;;;;;14.40;7.20;;;;;;;19.74;62.86;99388.83;25083;1315;3052222;-62
2022/07/01 04:08:40;;;;;;;14.20;7.70;;;;;;;19.81;62.48;99386.77;25030;1315;3026269;-63
2022/07/01 04:11:09;;;;;;;13.00;6.90;;;;;;;19.90;62.08;99388.17;25084;1316;3050977;-62
2022/07/01 04:13:39;;;;;;;13.00;6.50;;;;;;;19.99;61.97;99388.58;25068;1315;3026451;-62
2022/07/01 04:16:08;;;;;;;14.70;6.00;;;;;;;20.02;61.35;99391.67;25049;1316;3026646;-63
2022/07/01 04:18:37;;;;;;;11.40;6.00;;;;;;;20.12;61.31;99395.40;25030;1315;3049828;-63
2022/07/01 04:23:53;;;;;;;11.40;6.00;;;;;;;20.30;60.78;99392.29;25059;1316;3058682;-63
2022/07/01 04:26:24;;;;;;;11.80;6.60;;;;;;;20.36;60.77;99391.05;25041;1316;3026826;-63
2022/07/01 04:28:54;;;;;;;13.90;5.70;;;;;;;20.48;60.25;99391.18;25121;1315;3026675;-63
2022/07/01 04:31:23;;;;;;;24.80;10.30;;;;;;;20.50;59.82;99398.12;25086;1316;3026603;-64
2022/07/01 04:33:52;;;;;;;25.00;12.90;;;;;;;20.49;60.24;99398.58;25006;1316;3030114;-63
2022/07/01 04:36:21;;;;;;;30.90;16.00;;;;;;;20.52;60.67;99397.13;25100;1316;3055369;-62
2022/07/01 04:38:50;;;;;;;28.50;16.60;;;;;;;20.56;61.14;99395.89;25041;1315;3026620;-62
2022/07/01 04:44:08;;;;;;;36.50;16.90;;;;;;;20.70;60.94;99399.30;24988;1315;3051599;-63
2022/07/01 04:46:37;;;;;;;30.10;14.60;;;;;;;20.73;60.37;99397.57;25099;1316;3026192;-61
2022/07/01 04:49:07;;;;;;;28.00;13.60;;;;;;;20.66;59.49;99402.28;25024;1319;3030170;-61
2022/07/01 04:51:36;;;;;;;29.00;11.60;;;;;;;20.74;59.86;99394.97;25051;1316;3054401;-63
2022/07/01 04:54:06;;;;;;;19.20;8.10;;;;;;;20.84;59.46;99396.34;25095;1315;3026713;-62
2022/07/01 04:56:36;;;;;;;24.90;6.90;;;;;;;20.90;58.70;99396.70;25095;1316;3048856;-66
2022/07/01 04:59:05;;;;;;;18.50;6.20;;;;;;;21.00;58.45;99399.90;25131;1315;3026468;-62
2022/07/01 05:01:34;;;;;;;16.80;6.80;;;;;;;21.07;58.31;99403.03;25023;1318;3026759;-62
2022/07/01 05:04:03;;;;;;;19.90;4.90;;;;;;;21.18;57.81;99408.63;25093;1316;3026638;-61
2022/07/01 05:06:33;;;;;;;11.80;5.30;;;;;;;21.21;57.22;99410.45;25085;1316;3055236;-63
2022/07/01 05:09:03;;;;;;;12.00;5.40;;;;;;;21.28;57.34;99411.73;25087;1315;3026536;-62
2022/07/01 05:11:32;;;;;;;15.50;5.60;;;;;;;21.39;56.77;99411.21;25027;1316;3026596;-64
2022/07/01 05:14:01;;;;;;;11.70;4.90;;;;;;;21.47;56.80;99414.35;25098;1316;3055117;-62
2022/07/01 05:16:30;;;;;;;10.80;5.10;;;;;;;21.43;56.52;99416.36;25044;1316;3026102;-62
2022/07/01 05:22:00;;;;;;;10.80;5.20;;;;;;;21.15;55.76;99411.59;25060;1315;3055968;-62
2022/07/01 05:24:30;;;;;;;10.30;5.20;;;;;;;21.22;56.62;99409.55;25110;1316;3053715;-64
2022/07/01 05:27:02;;;;;;;11.80;5.60;;;;;;;21.22;56.64;99413.78;25074;1316;3026787;-64
2022/07/01 05:29:31;;;;;;;12.70;5.50;;;;;;;21.10;57.34;99412.74;25133;1316;3026779;-63
2022/07/01 05:32:00;;;;;;;9.90;5.60;;;;;;;21.10;57.78;99412.05;25033;1316;3026236;-63
2022/07/01 05:34:29;;;;;;;14.50;6.20;;;;;;;21.13;57.94;99412.36;25061;1316;3070231;-62
2022/07/01 05:36:58;;;;;;;12.30;5.90;;;;;;;21.22;57.88;99413.05;25023;1315;3027189;-63
2022/07/01 05:39:27;;;;;;;14.40;7.00;;;;;;;21.31;58.04;99414.95;25075;1316;3053059;-65
2022/07/01 05:41:56;;;;;;;10.70;5.70;;;;;;;21.34;57.84;99415.89;25117;1319;3026406;-63
2022/07/01 05:44:26;;;;;;;19.70;5.90;;;;;;;21.45;57.42;99412.75;25018;1319;3026655;-64
2022/07/01 05:46:55;;;;;;;10.00;5.80;;;;;;;21.58;57.50;99415.14;25105;1316;3026594;-64
2022/07/01 05:49:24;;;;;;;9.60;5.20;;;;;;;21.72;56.14;99409.34;25023;1316;3070457;-62
2022/07/01 05:51:53;;;;;;;12.40;5.40;;;;;;;21.82;56.36;99414.22;25076;1316;3026097;-62
2022/07/01 05:54:22;;;;;;;8.10;6.40;;;;;;;21.87;56.34;99411.27;25066;1316;3053733;-64
2022/07/01 05:56:51;;;;;;;12.00;6.10;;;;;;;21.91;56.12;99411.38;25073;1316;3027323;-62
2022/07/01 05:59:20;;;;;;;15.30;5.60;;;;;;;22.00;56.20;99413.95;25029;1316;3054856;-62
2022/07/01 06:01:50;;;;;;;17.20;5.90;;;;;;;22.05;55.30;99413.61;25097;1315;3026159;-62
2022/07/01 06:04:19;;;;;;;18.60;5.80;;;;;;;22.15;54.40;99410.92;25086;1316;3051374;-63
2022/07/01 06:06:48;;;;;;;9.30;5.20;;;;;;;22.25;53.08;99412.51;25073;1316;3026543;-63
2022/07/01 06:09:17;;;;;;;8.20;5.20;;;;;;;22.24;53.05;99412.97;25053;1315;3058078;-63
2022/07/01 06:11:47;;;;;;;14.30;5.80;;;;;;;22.38;53.06;99413.64;25023;1315;3027280;-63
2022/07/01 06:14:16;;;;;;;9.80;5.70;;;;;;;22.44;53.32;99414.20;25089;1315;3026470;-63
2022/07/01 06:16:45;;;;;;;12.10;5.20;;;;;;;22.59;52.75;99415.86;25075;1316;3058164;-63
2022/07/01 06:19:14;;;;;;;11.70;4.80;;;;;;;22.64;51.63;99415.46;25063;1316;3026454;-68
2022/07/01 06:21:44;;;;;;;14.60;5.10;;;;;;;22.75;50.68;99412.70;25143;1316;3051688;-62
2022/07/01 06:24:13;;;;;;;18.10;5.60;;;;;;;22.81;50.80;99418.50;25083;1316;3026604;-62
2022/07/01 06:26:42;;;;;;;12.70;5.00;;;;;;;22.87;50.03;99414.02;25093;1315;3054502;-63
2022/07/01 06:29:13;;;;;;;17.00;5.00;;;;;;;22.95;49.74;99415.78;25067;1316;3028153;-62
2022/07/01 06:31:42;;;;;;;10.70;4.30;;;;;;;22.97;49.03;99411.10;25062;1315;3048996;-63
2022/07/01 06:34:11;;;;;;;8.40;4.40;;;;;;;23.05;48.62;99413.19;25148;1316;3026334;-64
2022/07/01 06:36:39;;;;;;;9.80;4.30;;;;;;;23.19;48.69;99414.94;25066;1315;3070249;-63
2022/07/01 06:39:08;;;;;;;15.40;4.80;;;;;;;23.27;48.30;99408.92;25075;1316;3026293;-63
2022/07/01 06:41:37;;;;;;;15.90;4.80;;;;;;;23.37;47.84;99404.56;25049;1316;3053298;-62
2022/07/01 06:44:06;;;;;;;9.70;4.70;;;;;;;23.50;45.99;99404.17;25075;1316;3026739;-64
2022/07/01 06:46:36;;;;;;;10.80;4.60;;;;;;;23.56;44.30;99405.03;25041;1319;3055129;-62
2022/07/01 06:49:05;;;;;;;12.00;4.30;;;;;;;23.64;45.23;99403.23;25141;1316;3026809;-64
2022/07/01 06:51:34;;;;;;;15.60;4.50;;;;;;;23.72;45.47;99405.88;25022;1316;3051388;-64
2022/07/01 06:54:03;;;;;;;16.10;4.40;;;;;;;23.78;45.42;99404.46;25091;1316;3026290;-62
2022/07/01 06:56:32;;;;;;;9.30;4.00;;;;;;;23.93;44.42;99397.63;25025;1316;3058835;-62
2022/07/01 06:59:01;;;;;;;9.00;4.30;;;;;;;24.02;43.16;99397.41;25098;1315;3026645;-62
2022/07/01 07:01:32;;;;;;;8.40;3.20;;;;;;;24.08;41.80;99395.51;25027;1316;3055803;-63
2022/07/01 07:04:01;;;;;;;8.00;3.30;;;;;;;24.05;40.38;99394.94;25088;1316;3028522;-62
2022/07/01 07:06:30;;;;;;;12.90;3.80;;;;;;;24.19;40.94;99396.80;25048;1315;3054294;-64
2022/07/01 07:08:59;;;;;;;6.50;3.50;;;;;;;24.39;40.49;99398.41;25071;1314;3026667;-65
2022/07/01 07:11:28;;;;;;;11.70;3.30;;;;;;;24.51;39.36;99399.70;25060;1315;3050854;-63
2022/07/01 07:13:57;;;;;;;12.10;3.70;;;;;;;24.63;39.85;99398.30;25104;1316;3026341;-63
2022/07/01 07:16:26;;;;;;;17.00;3.30;;;;;;;24.71;39.66;99398.05;25026;1316;3070031;-64
2022/07/01 07:18:55;;;;;;;8.60;3.60;;;;;;;24.83;39.34;99394.16;25037;1315;3026279;-63
2022/07/01 07:21:24;;;;;;;11.40;3.10;;;;;;;24.96;39.46;99394.80;24993;1315;3053423;-65
2022/07/01 07:23:53;;;;;;;8.40;2.40;;;;;;;25.02;38.04;99395.32;25101;1315;3026219;-61
2022/07/01 07:26:22;;;;;;;11.50;2.80;;;;;;;24.94;37.52;99399.49;25026;1316;3052021;-63
2022/07/01 07:28:51;;;;;;;14.00;2.20;;;;;;;24.96;37.42;99398.89;25083;1317;3028113;-62
2022/07/01 07:31:20;;;;;;;5.90;2.90;;;;;;;25.06;37.87;99399.64;25087;1316;3027080;-62
2022/07/01 07:33:53;;;;;;;7.90;3.20;;;;;;;25.21;38.30;99400.34;25085;1316;3052630;-64
2022/07/01 07:36:22;;;;;;;13.60;3.40;;;;;;;25.33;38.15;99397.26;25033;1316;3028832;-63
2022/07/01 07:38:51;;;;;;;9.70;2.90;;;;;;;25.37;37.03;99391.56;25075;1316;3048654;-63
2022/07/01 07:41:20;;;;;;;8.60;3.40;;;;;;;25.49;37.18;99393.13;25117;1316;3026489;-63
2022/07/01 07:43:49;;;;;;;12.50;4.00;;;;;;;25.65;37.11;99391.73;25083;1315;3055746;-63
2022/07/01 07:46:18;;;;;;;11.10;3.80;;;;;;;25.74;37.20;99389.09;25128;1315;3027473;-63
2022/07/01 07:48:48;;;;;;;9.40;2.70;;;;;;;25.84;37.16;99391.87;25068;1315;3054467;-64
2022/07/01 07:51:18;;;;;;;3.70;2.10;;;;;;;25.93;35.83;99393.52;25058;1315;3026607;-63
2022/07/01 07:53:46;;;;;;;8.30;2.00;;;;;;;25.92;35.08;99389.23;25079;1316;3052265;-63
2022/07/01 07:56:15;;;;;;;9.20;1.90;;;;;;;25.98;34.18;99391.85;25075;1316;3026534;-63
2022/07/01 07:58:46;;;;;;;7.70;2.10;;;;;;;25.98;33.74;99395.29;25059;1316;3052007;-63
2022/07/01 08:01:15;;;;;;;7.30;2.10;;;;;;;26.00;33.81;99396.13;25085;1315;3026663;-63
2022/07/01 08:03:45;;;;;;;13.50;1.80;;;;;;;26.05;33.32;99391.52;25071;1316;3068855;-63
2022/07/01 08:06:14;;;;;;;6.70;1.60;;;;;;;26.16;33.60;99392.09;25136;1315;3026840;-64
2022/07/01 08:08:43;;;;;;;5.40;1.80;;;;;;;26.21;32.70;99381.85;25122;1316;3028736;-63
2022/07/01 08:11:12;;;;;;;5.40;1.40;;;;;;;26.20;32.28;99381.97;25027;1315;3070160;-62
2022/07/01 08:13:41;;;;;;;7.80;1.50;;;;;;;26.23;32.21;99382.58;25174;1315;3026658;-62
2022/07/01 08:16:10;;;;;;;5.90;1.50;;;;;;;26.21;32.26;99381.90;25079;1316;3054665;-64
2022/07/01 08:18:40;;;;;;;8.20;1.60;;;;;;;26.32;31.94;99380.91;25158;1316;3026391;-64
2022/07/01 08:21:09;;;;;;;6.70;1.80;;;;;;;26.52;32.11;99375.79;25101;1316;3026663;-63
2022/07/01 08:23:38;;;;;;;3.40;1.50;;;;;;;26.65;31.86;99379.73;25047;1316;3053036;-63
2022/07/01 08:26:07;;;;;;;9.20;1.50;;;;;;;26.71;31.64;99374.73;25091;1316;3026639;-63
2022/07/01 08:28:36;;;;;;;9.10;1.70;;;;;;;26.74;31.54;99373.39;25160;1316;3026406;-64
2022/07/01 08:31:05;;;;;;;6.60;1.60;;;;;;;26.64;30.93;99380.78;25090;1315;3053854;-63
2022/07/01 08:33:35;;;;;;;5.10;1.70;;;;;;;26.63;30.87;99372.56;25058;1316;3026489;-63
2022/07/01 08:36:07;;;;;;;4.60;1.70;;;;;;;26.69;30.96;99377.61;25050;1314;3026784;-63
2022/07/01 08:38:37;;;;;;;4.10;1.60;;;;;;;26.78;30.66;99375.15;25094;1316;3050406;-62
2022/07/01 08:41:06;;;;;;;8.30;1.60;;;;;;;26.73;29.79;99364.67;25034;1316;3026172;-62
2022/07/01 08:43:35;;;;;;;7.10;1.40;;;;;;;26.51;29.11;99367.33;25076;1316;3026095;-63
2022/07/01 08:46:06;;;;;;;5.40;1.40;;;;;;;26.42;29.20;99371.16;25066;1316;3054511;-65
2022/07/01 08:48:36;;;;;;;3.90;1.40;;;;;;;26.27;29.62;99375.81;25081;1315;3026535;-63
2022/07/01 08:51:06;;;;;;;6.00;1.30;;;;;;;26.26;29.68;99369.42;25111;1316;3026307;-63
2022/07/01 08:53:36;;;;;;;6.50;1.70;;;;;;;26.23;29.56;99370.23;25108;1315;3051713;-65
2022/07/01 08:58:53;;;;;;;3.30;1.50;;;;;;;26.46;29.85;99363.69;25140;1316;3055307;-65
2022/07/01 09:01:24;;;;;;;5.60;1.90;;;;;;;26.47;29.81;99369.50;25177;1315;3027087;-66
2022/07/01 09:03:55;;;;;;;5.80;1.60;;;;;;;26.26;28.98;99369.30;25107;1316;3026839;-66
2022/07/01 09:06:28;;;;;;;3.90;1.60;;;;;;;26.31;28.99;99364.18;25154;1315;3028863;-64
2022/07/01 09:09:13;;;;;;;3.90;1.50;;;;;;;26.57;29.16;99357.10;25081;1316;3026609;-64
2022/07/01 09:11:53;;;;;;;5.20;1.80;;;;;;;26.36;29.85;99368.36;25156;1315;3053047;-66
2022/07/01 09:14:26;;;;;;;5.60;1.70;;;;;;;26.50;29.87;99368.44;25018;1315;3059272;-68
2022/07/01 09:17:00;;;;;;;3.50;1.40;;;;;;;26.61;29.32;99364.97;25099;1315;3052038;-67
2022/07/01 09:19:30;;;;;;;;;;;;;;;26.61;29.44;99358.87;25136;1315;3053638;-63
2022/07/01 09:22:00;;;;;;;7.50;1.60;;;;;;;26.79;30.16;99357.77;25133;1316;3026608;-66
2022/07/01 09:24:30;;;;;;;4.10;1.50;;;;;;;26.97;29.25;99366.45;25122;1316;3026926;-66
2022/07/01 09:27:00;;;;;;;2.60;1.50;;;;;;;26.70;29.43;99358.96;25112;1316;3028970;-63
2022/07/01 09:29:31;;;;;;;5.90;1.30;;;;;;;26.74;29.61;99359.57;25048;1316;3026768;-66
2022/07/01 09:32:03;;;;;;;4.70;1.60;;;;;;;26.31;29.78;99355.02;25114;1316;3026107;-63
2022/07/01 09:34:34;;;;;;;13.40;1.40;;;;;;;26.33;30.50;99351.52;25100;1315;3026938;-67
2022/07/01 09:37:03;;;;;;;4.70;1.70;;;;;;;26.62;30.77;99348.02;25237;1316;3026991;-62
2022/07/01 09:39:53;;;;;;;5.90;2.00;;;;;;;26.75;30.22;99351.66;25228;1316;3028191;-66
2022/07/01 09:42:24;;;;;;;5.90;1.70;;;;;;;26.87;30.15;99352.95;25183;1316;3051365;-64
2022/07/01 09:44:56;;;;;;;3.90;1.30;;;;;;;27.04;29.93;99352.95;25066;1315;3029256;-66
2022/07/01 09:47:26;;;;;;;7.00;1.70;;;;;;;27.26;29.77;99346.56;25093;1315;3026298;-67
2022/07/01 09:49:56;;;;;;;7.80;1.60;;;;;;;27.34;30.19;99343.91;25140;1314;3027245;-68
2022/07/01 09:52:25;;;;;;;6.90;1.60;;;;;;;27.32;30.41;99340.38;25083;1315;3026532;-66
2022/07/01 09:54:54;;;;;;;7.80;1.60;;;;;;;27.22;30.19;99341.42;25040;1316;3026611;-63
2022/07/01 09:57:24;;;;;;;3.40;1.60;;;;;;;26.96;30.73;99347.59;25180;1316;3052739;-66
2022/07/01 09:59:54;;;;;;;5.30;1.30;;;;;;;27.07;30.83;99336.88;25104;1315;3028415;-67
2022/07/01 10:02:24;;;;;;;2.80;1.30;;;;;;;27.16;30.36;99343.36;25107;1315;3052402;-64
2022/07/01 10:04:56;;;;;;;7.70;1.40;;;;;;;27.47;30.01;99335.05;25036;1318;3026772;-66
2022/07/01 10:07:40;;;;;;;7.10;1.90;;;;;;;27.55;29.79;99335.59;25150;1316;3029595;-65
2022/07/01 10:10:32;;;;;;;3.30;1.20;;;;;;;27.77;29.06;99336.21;25073;1316;3056185;-63
2022/07/01 10:13:02;;;;;;;7.30;1.30;;;;;;;27.95;28.21;99331.71;25122;1315;3051815;-62
2022/07/01 10:15:31;;;;;;;4.60;1.10;;;;;;;28.22;28.20;99328.73;25085;1316;3026295;-64
2022/07/01 10:18:00;;;;;;;7.80;1.60;;;;;;;28.50;28.15;99330.05;25122;1316;3026650;-66
2022/07/01 10:20:30;;;;;;;4.00;1.30;;;;;;;28.40;27.66;99324.80;25102;1316;3051114;-68
2022/07/01 10:23:02;;;;;;;5.40;1.40;;;;;;;28.21;28.09;99324.50;24989;1316;3026941;-63
2022/07/01 10:25:42;;;;;;;3.50;1.60;;;;;;;28.10;28.58;99319.84;25091;1315;3026576;-66
2022/07/01 10:28:11;;;;;;;4.00;1.20;;;;;;;28.07;28.23;99312.48;25117;1316;3069491;-67
2022/07/01 10:31:03;;;;;;;6.20;1.60;;;;;;;28.30;27.98;99307.06;25091;1315;3026632;-65
2022/07/01 10:33:44;;;;;;;4.10;1.40;;;;;;;28.51;27.02;99299.41;25051;1315;3054177;-64
2022/07/01 10:36:26;;;;;;;6.70;1.70;;;;;;;28.42;26.91;99294.42;25005;1316;3068992;-68
2022/07/01 10:39:01;;;;;;;4.10;1.40;;;;;;;28.29;26.93;99294.45;25173;1315;3048617;-70
2022/07/01 10:41:31;;;;;;;3.90;1.50;;;;;;;28.31;26.88;99290.69;25049;1315;3054713;-68
2022/07/01 10:44:05;;;;;;;3.60;1.60;;;;;;;28.46;27.15;99283.60;25142;1316;3026784;-65
2022/07/01 10:46:45;;;;;;;5.20;1.40;;;;;;;28.64;27.06;99281.52;25138;1315;3058352;-67
2022/07/01 10:49:19;;;;;;;6.90;1.90;;;;;;;28.78;26.89;99283.52;25088;1316;3050045;-66
2022/07/01 10:52:18;;;;;;;4.80;1.30;;;;;;;28.89;26.79;99276.75;25087;1316;3056238;-59
2022/07/01 10:54:49;;;;;;;3.40;1.20;;;;;;;29.14;26.99;99276.30;25119;1315;3051029;-64
2022/07/01 10:57:19;;;;;;;4.80;1.70;;;;;;;29.26;26.87;99275.27;25072;1316;3026660;-62
2022/07/01 11:00:15;;;;;;;7.60;1.80;;;;;;;29.40;26.72;99275.14;25044;1316;3026911;-63
2022/07/01 11:02:45;;;;;;;5.00;1.30;;;;;;;29.36;26.57;99274.44;25091;1316;3051399;-65
2022/07/01 11:05:14;;;;;;;4.20;1.40;;;;;;;28.98;27.12;99278.49;25045;1316;3026475;-63
2022/07/01 11:07:45;;;;;;;5.30;1.50;;;;;;;28.94;27.23;99269.23;25061;1315;3049190;-64
2022/07/01 11:10:15;;;;;;;5.10;1.40;;;;;;;29.07;27.41;99272.28;25048;1316;3026825;-61
2022/07/01 11:12:49;;;;;;;17.70;1.60;;;;;;;29.16;27.62;99267.17;25069;1315;3028160;-62
2022/07/01 11:15:18;;;;;;;4.50;1.60;;;;;;;29.29;27.71;99272.71;25022;1316;3028274;-63
2022/07/01 11:17:49;;;;;;;6.30;1.60;;;;;;;29.26;28.19;99273.18;25061;1316;3026488;-62
2022/07/01 11:20:21;;;;;;;4.00;1.40;;;;;;;29.51;28.09;99280.45;25094;1316;3026528;-65
2022/07/01 11:22:51;;;;;;;4.90;1.70;;;;;;;29.51;27.91;99274.98;25026;1316;3027164;-65
2022/07/01 11:25:23;;;;;;;5.70;1.90;;;;;;;29.36;28.26;99272.98;25075;1316;3026260;-64
2022/07/01 11:27:52;;;;;;;7.90;1.70;;;;;;;29.51;27.99;99272.45;25049;1315;3026054;-63
2022/07/01 11:30:22;;;;;;;3.10;1.40;;;;;;;29.46;28.29;99270.37;25093;1315;3049739;-63
2022/07/01 11:32:55;;;;;;;6.40;1.50;;;;;;;29.34;28.18;99267.55;25076;1315;3026377;-64
2022/07/01 11:41:25;;;;;;;10.80;1.70;;;;;;;29.96;26.64;99259.11;25101;1315;3055477;-67
2022/07/01 11:43:54;;;;;;;4.90;1.40;;;;;;;29.79;26.78;99266.88;25074;1316;3056627;-62
2022/07/01 11:46:23;;;;;;;4.10;1.30;;;;;;;29.47;27.39;99265.63;25060;1315;3026159;-62
2022/07/01 11:48:54;;;;;;;8.40;1.60;;;;;;;29.33;27.76;99259.81;25126;1316;3027618;-67